createdAt,value
2023-06-08T00:00:39.894Z,100475.09
2023-06-08T00:03:27.894Z,100472.13
2023-06-08T00:06:29.939Z,100464.85
2023-06-08T00:09:32.733Z,100458.58
2023-06-08T00:12:26.729Z,100465.80
2023-06-08T00:15:13.800Z,100466.05
2023-06-08T00:18:17.116Z,100462.55
2023-06-08T00:21:20.784Z,100464.82
2023-06-08T00:24:21.788Z,100467.48
2023-06-08T00:27:22.773Z,100468.02
2023-06-08T00:30:23.796Z,100464.06
2023-06-08T00:33:24.794Z,100457.80
2023-06-08T00:36:26.810Z,100452.77
2023-06-08T00:39:27.843Z,100448.89
2023-06-08T00:42:29.761Z,100451.46
2023-06-08T00:45:30.864Z,100459.25
2023-06-08T00:48:31.863Z,100462.52
2023-06-08T00:51:32.809Z,100461.41
2023-06-08T00:54:33.904Z,100463.10
2023-06-08T00:57:35.993Z,100460.10
2023-06-08T01:00:39.876Z,100459.09
2023-06-08T01:03:43.821Z,100453.62
2023-06-08T01:06:56.907Z,100450.26
2023-06-08T01:10:07.029Z,100438.64
2023-06-08T01:13:36.918Z,100433.08
2023-06-08T01:16:24.901Z,100430.67
2023-06-08T01:19:25.879Z,100438.64
2023-06-08T01:22:41.853Z,100442.62
2023-06-08T01:25:46.906Z,100443.33
2023-06-08T01:28:47.925Z,100445.27
2023-06-08T01:31:48.925Z,100444.40
2023-06-08T01:34:49.959Z,100440.59
2023-06-08T01:37:58.934Z,100438.52
2023-06-08T01:40:59.899Z,100437.25
2023-06-08T01:44:04.132Z,100436.71
2023-06-08T01:47:12.929Z,100445.20
2023-06-08T01:50:13.879Z,100445.02
2023-06-08T01:53:15.941Z,100441.92
2023-06-08T01:56:10.051Z,100442.79
2023-06-08T01:59:12.928Z,100446.08
2023-06-08T02:02:13.939Z,100449.36
2023-06-08T02:05:14.956Z,100455.08
2023-06-08T02:08:15.983Z,100457.50
2023-06-08T02:11:17.985Z,100452.48
2023-06-08T02:14:18.972Z,100451.85
2023-06-08T02:17:20.964Z,100453.12
2023-06-08T02:20:22.951Z,100451.44
2023-06-08T02:23:23.977Z,100451.80
2023-06-08T02:26:24.989Z,100449.77
2023-06-08T02:29:27.975Z,100448.25
2023-06-08T02:32:29.057Z,100447.27
2023-06-08T02:35:30.978Z,100446.27
2023-06-08T02:38:32.033Z,100445.99
2023-06-08T02:41:34.024Z,100443.95
2023-06-08T02:44:35.052Z,100445.73
2023-06-08T02:47:36.189Z,100443.17
2023-06-08T02:50:37.070Z,100444.27
2023-06-08T02:53:39.016Z,100447.42
2023-06-08T02:56:41.033Z,100449.03
2023-06-08T02:59:44.020Z,100452.00
2023-06-08T03:02:46.091Z,100451.52
2023-06-08T03:05:49.093Z,100448.08
2023-06-08T03:09:04.251Z,100447.95
2023-06-08T03:12:06.056Z,100446.45
2023-06-08T03:15:08.407Z,100445.60
2023-06-08T03:18:09.127Z,100444.41
2023-06-08T03:21:11.094Z,100447.21
2023-06-08T03:24:12.152Z,100450.17
2023-06-08T03:27:15.078Z,100450.19
2023-06-08T03:30:18.121Z,100449.67
2023-06-08T03:33:20.070Z,100450.56
2023-06-08T03:36:26.085Z,100450.91
2023-06-08T03:39:28.122Z,100450.39
2023-06-08T03:42:29.125Z,100448.52
2023-06-08T03:45:30.093Z,100450.44
2023-06-08T03:48:33.126Z,100446.81
2023-06-08T03:51:35.118Z,100447.17
2023-06-08T03:54:37.236Z,100452.55
2023-06-08T03:57:38.148Z,100451.69
2023-06-08T04:00:40.129Z,100453.61
2023-06-08T04:03:42.243Z,100451.35
2023-06-08T04:06:46.131Z,100449.98
2023-06-08T04:09:48.136Z,100453.85
2023-06-08T04:12:49.176Z,100454.73
2023-06-08T04:15:50.338Z,100457.34
2023-06-08T04:18:51.137Z,100458.43
2023-06-08T04:21:53.605Z,100451.86
2023-06-08T04:24:55.176Z,100449.13
2023-06-08T04:27:56.295Z,100447.58
2023-06-08T04:30:57.284Z,100449.84
2023-06-08T04:33:59.196Z,100453.13
2023-06-08T04:37:02.429Z,100452.84
2023-06-08T04:39:57.215Z,100451.30
2023-06-08T04:42:47.205Z,100447.99
2023-06-08T04:45:48.227Z,100451.30
2023-06-08T04:48:51.245Z,100450.11
2023-06-08T04:51:54.197Z,100451.61
2023-06-08T04:55:00.217Z,100444.95
2023-06-08T04:58:01.233Z,100447.18
2023-06-08T05:01:02.340Z,100445.86
2023-06-08T05:04:03.311Z,100445.21
2023-06-08T05:07:04.279Z,100449.94
2023-06-08T05:10:05.681Z,100452.42
2023-06-08T05:13:07.300Z,100451.58
2023-06-08T05:16:08.247Z,100455.60
2023-06-08T05:19:15.043Z,100449.19
2023-06-08T05:22:16.244Z,100445.38
2023-06-08T05:25:17.332Z,100447.17
2023-06-08T05:28:21.303Z,100452.23
2023-06-08T05:31:22.342Z,100452.24
2023-06-08T05:34:23.374Z,100461.65
2023-06-08T05:37:24.335Z,100462.85
2023-06-08T05:40:18.430Z,100465.65
2023-06-08T05:43:22.360Z,100466.17
2023-06-08T05:46:23.347Z,100472.07
2023-06-08T05:49:26.449Z,100474.16
2023-06-08T05:52:30.352Z,100478.33
2023-06-08T05:55:31.339Z,100485.63
2023-06-08T05:58:48.204Z,100488.24
2023-06-08T06:01:51.368Z,100491.38
2023-06-08T06:04:52.469Z,100491.39
2023-06-08T06:07:54.378Z,100492.97
2023-06-08T06:10:55.399Z,100498.02
2023-06-08T06:13:57.680Z,100502.90
2023-06-08T06:17:06.875Z,100508.15
2023-06-08T06:20:11.396Z,100511.80
2023-06-08T06:23:12.441Z,100515.10
2023-06-08T06:26:14.467Z,100511.23
2023-06-08T06:29:09.404Z,100510.84
2023-06-08T06:31:50.727Z,100505.20
2023-06-08T06:34:46.736Z,100504.13
2023-06-08T06:37:42.709Z,100506.52
2023-06-08T06:40:43.558Z,100509.95
2023-06-08T06:43:44.429Z,100506.42
2023-06-08T06:46:49.499Z,100505.14
2023-06-08T06:49:51.489Z,100502.89
2023-06-08T06:52:52.541Z,100502.06
2023-06-08T06:56:06.045Z,100504.02
2023-06-08T06:59:18.585Z,100507.96
2023-06-08T07:02:23.935Z,100500.70
2023-06-08T07:05:27.603Z,100500.00
2023-06-08T07:08:28.586Z,100498.81
2023-06-08T07:11:31.628Z,100495.99
2023-06-08T07:14:33.678Z,100502.52
2023-06-08T07:17:37.723Z,100498.42
2023-06-08T07:20:40.880Z,100492.16
2023-06-08T07:24:07.179Z,100497.23
2023-06-08T07:27:06.597Z,100499.78
2023-06-08T07:30:20.557Z,100499.10
2023-06-08T07:33:45.061Z,100504.60
2023-06-08T07:37:14.421Z,100509.30
2023-06-08T07:40:26.044Z,100506.70
2023-06-08T07:43:36.887Z,100504.61
2023-06-08T07:46:39.692Z,100501.91
2023-06-08T07:49:49.217Z,100500.21
2023-06-08T07:52:53.764Z,100490.20
2023-06-08T07:55:57.549Z,100486.39
2023-06-08T07:59:00.492Z,100496.44
2023-06-08T08:02:05.003Z,100496.69
2023-06-08T08:05:05.725Z,100494.08
2023-06-08T08:08:11.626Z,100499.48
2023-06-08T08:11:15.743Z,100499.58
2023-06-08T08:14:26.789Z,100496.05
2023-06-08T08:17:27.768Z,100500.43
2023-06-08T08:20:28.606Z,100498.82
2023-06-08T08:23:29.666Z,100501.22
2023-06-08T08:26:36.859Z,100501.46
2023-06-08T08:29:38.672Z,100504.77
2023-06-08T08:32:40.648Z,100507.48
2023-06-08T08:35:43.655Z,100504.30
2023-06-08T09:33:54.698Z,100485.36
2023-06-08T09:37:00.223Z,100493.42
2023-06-08T09:40:03.658Z,100493.96
2023-06-08T09:43:08.072Z,100494.91
2023-06-08T09:46:14.656Z,100486.85
2023-06-08T09:49:26.166Z,100488.38
2023-06-08T09:52:30.031Z,100483.17
2023-06-08T09:55:33.415Z,100485.06
2023-06-08T09:58:36.306Z,100486.36
2023-06-08T10:02:00.388Z,100489.09
2023-06-08T10:05:06.490Z,100486.86
2023-06-08T10:08:10.106Z,100490.55
2023-06-08T10:11:11.114Z,100480.95
2023-06-08T10:14:13.122Z,100475.59
2023-06-08T10:17:15.394Z,100478.44
2023-06-08T10:20:16.099Z,100475.00
2023-06-08T10:23:18.209Z,100470.43
2023-06-08T10:26:19.198Z,100464.96
2023-06-08T10:29:22.818Z,100462.92
2023-06-08T10:32:25.347Z,100464.30
2023-06-08T10:35:27.282Z,100466.67
2023-06-08T10:38:29.234Z,100468.11
2023-06-08T10:41:58.142Z,100468.27
2023-06-08T10:45:13.287Z,100461.88
2023-06-08T10:48:22.144Z,100461.86
2023-06-08T10:51:26.231Z,100460.00
2023-06-08T10:54:38.372Z,100462.61
2023-06-08T10:58:05.607Z,100461.83
2023-06-08T11:01:19.117Z,100459.53
2023-06-08T11:04:37.708Z,100449.19
2023-06-08T11:07:46.206Z,100457.89
2023-06-08T11:10:49.479Z,100460.76
2023-06-08T11:13:50.550Z,100451.02
2023-06-08T11:16:51.175Z,100438.24
2023-06-08T11:19:52.388Z,100429.65
2023-06-08T11:22:53.178Z,100438.48
2023-06-08T11:25:55.413Z,100440.34
2023-06-08T11:28:58.184Z,100440.17
2023-06-08T11:32:51.825Z,100422.30
2023-06-08T11:35:51.692Z,100433.56
2023-06-08T11:38:52.672Z,100434.52
2023-06-08T11:41:54.695Z,100427.25
2023-06-08T11:44:55.697Z,100424.70
2023-06-08T11:48:13.987Z,100429.42
2023-06-08T11:51:16.699Z,100425.46
2023-06-08T11:54:16.912Z,100420.97
2023-06-08T11:57:19.735Z,100416.76
2023-06-08T12:00:20.935Z,100417.81
2023-06-08T12:03:17.420Z,100404.58
2023-06-08T12:06:18.105Z,100402.89
2023-06-08T12:09:20.096Z,100395.48
2023-06-08T12:12:23.833Z,100397.58
2023-06-08T12:15:28.829Z,100390.66
2023-06-08T12:18:29.974Z,100389.80
2023-06-08T12:21:31.984Z,100391.05
2023-06-08T12:24:31.775Z,100389.39
2023-06-08T12:27:32.785Z,100382.79
2023-06-08T12:30:34.968Z,100384.41
2023-06-08T12:33:34.920Z,100376.73
2023-06-08T12:36:34.891Z,100376.92
2023-06-08T12:39:35.022Z,100372.85
2023-06-08T12:42:42.317Z,100364.08
2023-06-08T12:45:36.356Z,100368.15
2023-06-08T12:48:37.827Z,100361.34
2023-06-08T12:51:37.968Z,100366.45
2023-06-08T12:54:38.222Z,100356.85
2023-06-08T12:57:38.829Z,100355.55
2023-06-08T13:00:39.910Z,100352.31
2023-06-08T13:03:41.146Z,100348.31
2023-06-08T13:06:43.154Z,100344.80
2023-06-08T13:09:44.870Z,100348.63
2023-06-08T13:12:47.097Z,100341.52
2023-06-08T13:15:46.975Z,100341.33
2023-06-08T13:18:48.929Z,100343.55
2023-06-08T13:21:49.918Z,100344.71
2023-06-08T13:24:51.013Z,100339.19
2023-06-08T13:29:50.566Z,100337.87
2023-06-08T13:32:53.215Z,100336.11
2023-06-08T13:35:54.087Z,100336.59
2023-06-08T13:39:09.001Z,100337.06
2023-06-08T13:42:14.205Z,100341.29
2023-06-08T13:45:20.473Z,100335.16
2023-06-08T13:51:39.503Z,100331.27
2023-06-08T13:51:42.178Z,100333.20
2023-06-08T13:54:44.141Z,100328.81
2023-06-08T13:57:45.131Z,100327.84
2023-06-08T14:00:46.260Z,100323.48
2023-06-08T14:03:47.276Z,100323.02
2023-06-08T14:06:48.341Z,100320.70
2023-06-08T14:09:49.522Z,100315.16
2023-06-08T14:12:51.182Z,100320.20
2023-06-08T14:15:52.331Z,100320.04
2023-06-08T14:18:53.152Z,100314.55
2023-06-08T14:21:54.260Z,100307.92
2023-06-08T14:24:55.159Z,100304.80
2023-06-08T14:27:57.601Z,100299.04
2023-06-08T14:30:58.380Z,100288.99
2023-06-08T14:33:59.194Z,100288.66
2023-06-08T14:37:03.486Z,100284.30
2023-06-08T14:40:04.559Z,100281.25
2023-06-08T14:43:12.247Z,100276.70
2023-06-08T14:46:14.193Z,100268.76
2023-06-08T14:49:08.372Z,100270.50
2023-06-08T14:52:10.411Z,100263.95
2023-06-08T14:55:14.416Z,100255.98
2023-06-08T14:58:15.363Z,100253.33
2023-06-08T15:01:16.281Z,100248.52
2023-06-08T15:04:19.513Z,100249.34
2023-06-08T15:07:20.224Z,100243.14
2023-06-08T15:10:24.307Z,100235.05
2023-06-08T15:13:25.226Z,100245.70
2023-06-08T15:16:26.254Z,100245.36
2023-06-08T15:19:27.264Z,100243.67
2023-06-08T15:22:28.237Z,100244.41
2023-06-08T15:25:29.263Z,100237.23
2023-06-08T15:28:30.381Z,100237.77
2023-06-08T15:31:31.430Z,100232.98
2023-06-08T15:34:32.294Z,100232.63
2023-06-08T15:37:43.281Z,100229.96
2023-06-08T15:40:44.386Z,100233.05
2023-06-08T15:43:45.340Z,100233.84
2023-06-08T15:46:47.393Z,100233.20
2023-06-08T15:49:50.325Z,100229.95
2023-06-08T15:52:53.301Z,100226.52
2023-06-08T15:55:55.187Z,100217.73
2023-06-08T15:58:49.389Z,100226.05
2023-06-08T16:01:52.266Z,100226.73
2023-06-08T16:04:53.374Z,100218.64
2023-06-08T16:07:54.344Z,100220.09
2023-06-08T16:10:56.752Z,100216.34
2023-06-08T16:14:00.389Z,100215.03
2023-06-08T16:17:01.412Z,100215.57
2023-06-08T16:20:02.385Z,100217.05
2023-06-08T16:23:03.425Z,100213.55
2023-06-08T16:26:05.409Z,100213.95
2023-06-08T16:29:07.628Z,100217.84
2023-06-08T16:32:02.177Z,100216.59
2023-06-08T16:34:56.573Z,100213.42
2023-06-08T16:37:58.409Z,100211.06
2023-06-08T16:40:59.456Z,100217.16
2023-06-08T16:44:01.457Z,100208.52
2023-06-08T16:47:02.444Z,100214.95
2023-06-08T16:50:03.457Z,100218.73
2023-06-08T16:53:05.564Z,100212.91
2023-06-08T16:56:06.593Z,100220.74
2023-06-08T16:59:07.431Z,100217.87
2023-06-08T17:02:12.037Z,100217.80
2023-06-08T17:05:08.642Z,100214.89
2023-06-08T17:08:09.408Z,100215.85
2023-06-08T17:11:11.564Z,100218.19
2023-06-08T17:14:14.499Z,100219.80
2023-06-08T17:17:15.495Z,100223.52
2023-06-08T17:20:16.528Z,100221.48
2023-06-08T17:26:58.211Z,100212.70
2023-06-08T17:30:07.611Z,100217.85
2023-06-08T17:33:15.542Z,100216.73
2023-06-08T17:36:20.948Z,100217.48
2023-06-08T17:42:54.450Z,100226.85
2023-06-08T17:53:20.969Z,100225.39
2023-06-08T18:00:01.086Z,100228.71
2023-06-08T18:03:02.855Z,100234.20
2023-06-08T18:06:19.699Z,100237.24
2023-06-08T18:09:24.903Z,100241.86
2023-06-08T18:12:25.623Z,100240.20
2023-06-08T18:15:29.619Z,100240.95
2023-06-08T18:18:30.665Z,100240.45
2023-06-08T18:21:32.928Z,100239.12
2023-06-08T18:24:34.581Z,100239.63
2023-06-08T18:27:35.595Z,100238.48
2023-06-08T18:30:36.666Z,100242.39
2023-06-08T18:33:37.600Z,100243.47
2023-06-08T18:36:38.669Z,100242.47
2023-06-08T18:39:58.724Z,100249.85
2023-06-08T18:43:02.630Z,100247.64
2023-06-08T18:46:05.078Z,100251.89
2023-06-08T18:49:13.006Z,100252.11
2023-06-08T18:52:14.658Z,100254.08
2023-06-08T18:55:16.634Z,100257.63
2023-06-08T18:58:24.695Z,100255.77
2023-06-08T19:01:19.884Z,100254.94
2023-06-08T19:04:01.235Z,100255.84
2023-06-08T19:06:47.796Z,100259.88
2023-06-08T19:09:30.773Z,100256.91
2023-06-08T19:12:18.742Z,100262.19
2023-06-08T19:14:59.906Z,100259.79
2023-06-08T19:17:46.782Z,100262.09
2023-06-08T19:20:35.707Z,100255.14
2023-06-08T19:23:36.738Z,100258.52
2023-06-08T19:26:39.753Z,100259.27
2023-06-08T19:29:41.077Z,100256.33
2023-06-08T19:32:43.864Z,100258.60
2023-06-08T19:35:45.019Z,100262.15
2023-06-08T19:38:47.158Z,100255.73
2023-06-08T19:41:51.233Z,100257.99
2023-06-08T19:44:53.728Z,100255.58
2023-06-08T19:47:54.955Z,100254.03
2023-06-08T19:50:58.519Z,100254.75
2023-06-08T19:53:59.741Z,100259.48
2023-06-08T19:57:02.774Z,100262.11
2023-06-08T20:00:03.764Z,100263.20
2023-06-08T20:03:04.853Z,100260.07
2023-06-08T20:06:05.791Z,100263.74
2023-06-08T20:09:06.908Z,100262.21
2023-06-08T20:12:12.772Z,100262.04
2023-06-08T20:15:13.807Z,100261.89
2023-06-08T20:18:14.795Z,100264.55
2023-06-08T20:21:15.792Z,100262.64
2023-06-08T20:24:17.024Z,100258.12
2023-06-08T20:27:17.811Z,100254.13
2023-06-08T20:30:20.392Z,100257.27
2023-06-08T20:33:20.946Z,100249.63
2023-06-08T20:36:17.506Z,100247.56
2023-06-08T20:39:04.877Z,100245.66
2023-06-08T20:42:05.915Z,100245.67
2023-06-08T20:45:07.102Z,100244.65
2023-06-08T20:48:07.933Z,100246.75
2023-06-08T20:51:08.877Z,100241.57
2023-06-08T20:54:10.848Z,100239.84
2023-06-08T20:57:18.930Z,100242.11
2023-06-08T21:00:19.887Z,100243.88
2023-06-08T21:03:22.931Z,100246.51
2023-06-08T21:06:25.861Z,100242.52
2023-06-08T21:38:12.422Z,100242.21
2023-06-08T21:41:15.367Z,100244.67
2023-06-08T21:44:15.479Z,100243.64
2023-06-08T21:47:15.398Z,100242.27
2023-06-08T21:50:20.647Z,100237.75
2023-06-08T21:53:20.419Z,100240.52
2023-06-08T21:56:20.649Z,100238.28
2023-06-08T21:59:20.518Z,100239.86
2023-06-08T22:02:20.463Z,100236.39
2023-06-08T22:05:23.005Z,100233.81
2023-06-08T22:08:24.470Z,100225.29
2023-06-08T22:11:24.441Z,100223.89
2023-06-08T22:14:24.452Z,100227.38
2023-06-08T22:17:25.470Z,100228.27
2023-06-08T22:20:25.519Z,100236.64
2023-06-08T22:23:25.448Z,100236.99
2023-06-08T22:26:25.504Z,100232.64
2023-06-08T22:29:26.849Z,100232.83
2023-06-08T22:32:26.502Z,100238.23
2023-06-08T22:35:26.502Z,100240.15
2023-06-08T22:38:20.675Z,100239.29
2023-06-08T22:41:21.523Z,100243.12
2023-06-08T22:44:21.494Z,100239.64
2023-06-08T22:47:21.624Z,100240.88
2023-06-08T22:50:21.610Z,100233.21
2023-06-08T22:53:28.512Z,100233.40
2023-06-08T22:56:29.586Z,100230.10
2023-06-08T22:59:29.539Z,100224.55
2023-06-08T23:02:30.576Z,100229.25
2023-06-08T23:05:30.529Z,100223.16
2023-06-08T23:08:31.820Z,100222.48
2023-06-08T23:11:32.559Z,100221.80
2023-06-08T23:14:33.646Z,100222.66
2023-06-08T23:17:33.621Z,100218.50
2023-06-08T23:20:33.633Z,100220.08
2023-06-08T23:23:39.614Z,100217.77
2023-06-08T23:26:39.602Z,100210.82
2023-06-08T23:29:39.589Z,100208.23
2023-06-08T23:32:39.705Z,100207.52
2023-06-08T23:35:39.692Z,100206.66
2023-06-08T23:38:42.639Z,100203.89
2023-06-08T23:41:42.644Z,100204.23
2023-06-08T23:44:42.635Z,100200.41
2023-06-08T23:47:44.717Z,100202.52
2023-06-08T23:50:44.578Z,100198.87
2023-06-08T23:53:44.599Z,100200.95
2023-06-08T23:56:44.658Z,100188.42
2023-06-08T23:59:44.648Z,100194.17
